Birmingham, AL

7:33 PM CDT on May 24, 2017 (GMT -0500)
UAB HHB | | Change Station

Elev 617 ft 33.50 °N, 86.81 °W | Updated 10 seconds ago

Overcast
Overcast
58.4 °F
Feels Like 58.4 °F
N
4.0
Wind Variable Wind from North
Gusts 9.0 mph

Today
High -- | Low -- °F
--% Chance of Precip.
Yesterday
High -- | Low -- °F
Precip. -- in
Pressure 29.61 in
Visibility 9.0 miles
Clouds Overcast 7500 ft
Dew Point 56 °F
Humidity 93%
Rainfall 0.72 in
Snow Depth Not available.
5:41 AM 7:47 PM
Waning Crescent, 1% visible
METAR KBHM 242353Z 28004KT 9SM -RA OVC075 15/13 A2962 RMK AO2 PK WND 28030/2304 RAB04 SLP025 P0019 60019 T01500128 10217 20150 52013
Pressure 29.61 in
Visibility 9.0 miles
Clouds Overcast 7500 ft
Dew Point 56 °F
Humidity 93%
Rainfall 0.72 in
Snow Depth Not available.
5:41 AM 7:47 PM
Waning Crescent, 1% visible
METAR KBHM 242353Z 28004KT 9SM -RA OVC075 15/13 A2962 RMK AO2 PK WND 28030/2304 RAB04 SLP025 P0019 60019 T01500128 10217 20150 52013

Get Severe Weather Alerts

Thanks for signing up!

Be on the lookout for a verification email in your inbox.

You'll start receiving the daily forecast at 6 AM.

×

10-Day Weather Forecast

Almanac

Astronomy

May. 24, 2017 Rise Set
Actual Time
Civil Twilight
Nautical Twilight
Astronomical Twilight
Moon
Length of Visible Light
Length of Day
Tomorrow will be .
, % of the Moon is Illuminated

Today's Extremes

State Highs State Lows

Community

WunderPhotos

Category 6

Welcome to Category 6. This is the collective home for Weather Underground's featured writeups by Dr. Jeff Masters (right), Bob Henson (left), Chris Burt, and other regular contributors.

Nearby

Air Quality

  Air Quality AQ Index Pollutant
Not available.

Snow Depth

Station Depth Elevation

Earthquake Activity

City Distance Mag. Time & Date
Minimum magnitude displayed is 2.5.

Coastal Water Temperatures

Place Temperature

Stations

Nearby Weather Stations

Station Location Temp. Windchill Dew Point Humidity Wind Precip. Elev Updated Type
                   

Watches & Warnings

There are currently no watches in effect.